Quick Links (Output Below):   Max & Min Temps   /   Climate Reports   /   Zone Forecasts
River Forecasts   /   Forestry Forecasts   /   Aviation Forecasts   /   Radars   /   Features

Terminal Aerodrome Forecast (Jonesboro)

Pick a Site:
Arkadelphia | El Dorado | Fayetteville | Fort Smith | Harrison | Highfill | Hot Springs | Jonesboro
Little Rock | Monticello | Mountain Home | Pine Bluff | Texarkana
 Forecast 

KJBR 180530Z 1806/1906 VRB03KT P6SM OVC035
     FM180700 VRB03KT P6SM VCTS OVC025CB
     FM181200 06006KT P6SM BKN040
     FM190000 04004KT P6SM BKN040=


 Latest METARs (Observations) 
How to Decode METARs
05Z KJBR 180453Z AUTO 03004KT 10SM CLR 17/17 A2996 RMK AO2 SLP143
         T01670167
         
04Z KJBR 180353Z AUTO 00000KT 10SM FEW075 16/16 A2997 RMK AO2 SLP146
         T01610161
         
03Z KJBR 180253Z AUTO 06004KT 10SM CLR 17/16 A2996 RMK AO2 SLP142
         T01670161 53011
         
02Z KJBR 180153Z AUTO 05004KT 10SM CLR 17/17 A2994 RMK AO2 SLP137
         T01670167
         
01Z KJBR 180053Z AUTO 06006KT 10SM SCT005 17/17 A2992 RMK AO2 SLP128
         T01720172
         
00Z KJBR 172353Z AUTO 03004KT 10SM FEW005 18/18 A2992 RMK AO2 SLP131
         60016 T01830178 10194 20172 55028
         
***** Today's Observations (Above) *****


23Z KJBR 172253Z AUTO VRB04KT 10SM CLR 19/18 A2992 RMK AO2 SLP131
         T01940178
         
22Z KJBR 172153Z AUTO 18008KT 10SM FEW100 18/17 A2989 RMK AO2 LTG DSNT
         SE AND S TSE35RAE51 SLP121 P0012 T01780167
         
21Z KJBR 172053Z AUTO 26010KT 10SM VCTS -RA FEW023 BKN046 OVC060 19/16
         A3001 RMK AO2 LTG DSNT SW-NW TSB45RAB52 SLP160 P0004 60004
         T01890156 55001
         
20Z KJBR 171953Z AUTO 00000KT 10SM CLR 18/15 A3000 RMK AO2 LTG DSNT N
         AND NW SLP158 T01830150
         
***** Yesterday's Observations (Above) *****


Back to Main Page
http://www.srh.noaa.gov/lzk/qfcst.php

USA.gov is the U.S. government's official web portal to all federal, state and local government web resources and services.